FW0762 Weather Reports


time (UTC)temp
C
wind
direction
speed
KPH
gust
KPH
rain 1hr
cm
rain 24hr
cm
rain mn
cm
humidity
%
barometer
mb
20200229074915 18 90 1.6 1.6 0.00 0.00 0.00 42 1016.6
20200229073915 18 90 3.2 6.4 0.00 0.00 0.00 44 1016.6
20200229072919 18 68 3.2 6.4 0.00 0.00 0.00 45 1016.7
20200229071916 18 68 1.6 3.2 0.00 0.00 0.00 45 1016.8
20200229070916 18 45 3.2 8.0 0.00 0.00 0.00 45 1016.7
20200229065917 18 23 3.2 3.2 0.00 0.00 0.00 45 1016.9
20200229064916 18 23 4.8 6.4 0.00 0.00 0.00 44 1016.9
20200229063915 19 23 6.4 6.4 0.00 0.00 0.00 45 1016.9
20200229062917 19 338 3.2 4.8 0.00 0.00 0.00 44 1017.1
20200229061916 19 338 1.6 3.2 0.00 0.00 0.00 43 1017.1
20200229060916 20 270 1.6 3.2 0.00 0.00 0.00 41 1017.0
20200229055916 20 270 1.6 3.2 0.00 0.00 0.00 40 1017.1
20200229054916 20 270 3.2 3.2 0.00 0.00 0.00 40 1017.1
20200229053918 20 0.0 0.0 0.00 0.00 0.00 40 1016.8
20200229052916 21 0.0 0.0 0.00 0.00 0.00 38 1016.8
20200229051916 21 270 3.2 4.8 0.00 0.00 0.00 38 1016.8
20200229050916 21 270 3.2 4.8 0.00 0.00 0.00 36 1017.0
20200229045916 21 270 3.2 4.8 0.00 0.00 0.00 37 1017.1
20200229044916 21 270 1.6 3.2 0.00 0.00 0.00 38 1017.0
20200229043917 21 270 1.6 3.2 0.00 0.00 0.00 39 1017.1
20200229042916 21 270 3.2 3.2 0.00 0.00 0.00 39 1017.0
20200229041915 21 270 4.8 4.8 0.00 0.00 0.00 39 1017.1
20200229040916 21 270 3.2 4.8 0.00 0.00 0.00 39 1017.0
20200229035916 21 270 4.8 4.8 0.00 0.00 0.00 38 1016.9
20200229034916 22 248 3.2 4.8 0.00 0.00 0.00 38 1016.9
20200229033916 22 248 3.2 3.2 0.00 0.00 0.00 37 1016.8
20200229032915 22 248 3.2 4.8 0.00 0.00 0.00 37 1016.7
20200229031917 22 248 4.8 6.4 0.00 0.00 0.00 37 1016.6
20200229030918 22 248 3.2 3.2 0.00 0.00 0.00 36 1016.3
20200229025916 22 248 1.6 1.6 0.00 0.00 0.00 36 1016.3
20200229024916 22 248 4.8 8.0 0.00 0.00 0.00 35 1016.1
20200229023916 23 248 3.2 6.4 0.00 0.00 0.00 35 1016.1
20200229022916 23 248 4.8 9.7 0.00 0.00 0.00 34 1016.1
20200229021916 23 248 9.7 14.5 0.00 0.00 0.00 33 1015.8
20200229020916 24 225 6.4 8.0 0.00 0.00 0.00 32 1015.7
20200229015915 24 225 4.8 6.4 0.00 0.00 0.00 30 1015.8
20200229014916 25 225 9.7 14.5 0.00 0.00 0.00 29 1015.6
20200229013915 25 225 9.7 12.9 0.00 0.00 0.00 26 1015.5
20200229012915 26 225 11.3 14.5 0.00 0.00 0.00 21 1015.7
20200229011915 26 225 6.4 8.0 0.00 0.00 0.00 19 1015.6
20200229010915 26 225 4.8 8.0 0.00 0.00 0.00 19 1015.7
20200229005916 26 225 11.3 14.5 0.00 0.00 0.00 19 1015.7
20200229004915 26 225 4.8 8.0 0.00 0.00 0.00 19 1015.7
20200229003915 26 225 3.2 4.8 0.00 0.00 0.00 19 1015.8
20200229002915 27 225 8.0 11.3 0.00 0.00 0.00 19 1015.9
20200229001916 27 225 8.0 11.3 0.00 0.00 0.00 19 1015.9
20200229000916 27 203 11.3 14.5 0.00 0.00 0.00 18 1016.1
20200228235916 28 225 9.7 12.9 0.00 0.00 0.00 14 1015.9
20200228234915 28 248 11.3 12.9 0.00 0.00 0.00 14 1015.8
20200228233917 28 315 6.4 8.0 0.00 0.00 0.00 14 1015.8
20200228232915 28 248 9.7 11.3 0.00 0.00 0.00 15 1015.7
20200228231917 29 180 8.0 12.9 0.00 0.00 0.00 15 1015.8
20200228230915 28 225 9.7 12.9 0.00 0.00 0.00 15 1015.8
20200228225916 28 248 9.7 11.3 0.00 0.00 0.00 15 1015.8
20200228224915 28 248 14.5 16.1 0.00 0.00 0.00 15 1016.1
20200228223915 28 225 14.5 17.7 0.00 0.00 0.00 15 1016.1
20200228222915 28 248 9.7 12.9 0.00 0.00 0.00 13 1016.1
20200228221915 28 248 16.1 22.5 0.00 0.00 0.00 14 1016.1
20200228220915 28 248 8.0 9.7 0.00 0.00 0.00 13 1016.1
20200228215916 28 248 11.3 14.5 0.00 0.00 0.00 12 1016.3
20200228214915 28 248 8.0 14.5 0.00 0.00 0.00 12 1016.1
20200228213917 28 225 8.0 9.7 0.00 0.00 0.00 12 1015.9
20200228212917 28 248 6.4 8.0 0.00 0.00 0.00 11 1015.8
20200228211917 29 270 8.0 11.3 0.00 0.00 0.00 11 1015.8
20200228210917 30 203 4.8 9.7 0.00 0.00 0.00 12 1015.9
20200228205917 30 270 1.6 1.6 0.00 0.00 0.00 11 1016.0
20200228204917 30 248 3.2 4.8 0.00 0.00 0.00 12 1016.1
20200228203917 30 225 1.6 3.2 0.00 0.00 0.00 12 1016.0
20200228202918 29 203 1.6 1.6 0.00 0.00 0.00 13 1016.1
20200228201918 28 0 4.8 6.4 0.00 0.00 0.00 14 1016.3
20200228200919 29 135 3.2 4.8 0.00 0.00 0.00 13 1016.4
20200228195917 28 0.0 1.6 0.00 0.00 0.00 13 1016.6
20200228194917 28 158 3.2 4.8 0.00 0.00 0.00 13 1016.8
20200228193917 28 113 1.6 3.2 0.00 0.00 0.00 13 1017.1
20200228192916 28 90 6.4 11.3 0.00 0.00 0.00 13 1017.3
20200228191920 28 135 3.2 4.8 0.00 0.00 0.00 14 1017.5
20200228190917 26 113 4.8 8.0 0.00 0.00 0.00 16 1017.5
20200228185917 26 90 8.0 12.9 0.00 0.00 0.00 16 1017.7
20200228184917 26 135 3.2 6.4 0.00 0.00 0.00 16 1017.8
20200228183918 26 113 8.0 12.9 0.00 0.00 0.00 16 1017.8
20200228182921 26 113 6.4 11.3 0.00 0.00 0.00 16 1017.8
20200228181918 25 113 6.4 11.3 0.00 0.00 0.00 16 1017.9
20200228180917 25 90 11.3 16.1 0.00 0.00 0.00 16 1018.2
20200228175919 24 113 11.3 17.7 0.00 0.00 0.00 16 1018.2
20200228174922 24 113 9.7 12.9 0.00 0.00 0.00 15 1018.1
20200228173918 24 113 8.0 17.7 0.00 0.00 0.00 15 1018.2
20200228172919 24 113 11.3 16.1 0.00 0.00 0.00 14 1018.3
20200228171916 24 113 8.0 16.1 0.00 0.00 0.00 14 1018.2
20200228170918 25 113 12.9 16.1 0.00 0.00 0.00 14 1018.2
20200228165916 24 90 8.0 14.5 0.00 0.00 0.00 14 1018.3
20200228164921 23 90 9.7 19.3 0.00 0.00 0.00 14 1018.2
20200228163916 23 90 9.7 14.5 0.00 0.00 0.00 15 1018.1
20200228162917 23 68 14.5 19.3 0.00 0.00 0.00 14 1018.1
20200228161916 23 90 6.4 12.9 0.00 0.00 0.00 15 1018.1
20200228160916 22 270 3.2 4.8 0.00 0.00 0.00 17 1018.3
20200228155916 22 180 6.4 9.7 0.00 0.00 0.00 19 1018.1
20200228154918 21 270 3.2 4.8 0.00 0.00 0.00 20 1017.7
20200228153919 21 293 1.6 1.6 0.00 0.00 0.00 20 1017.6
20200228152916 20 180 3.2 3.2 0.00 0.00 0.00 22 1017.5
20200228151917 20 158 1.6 1.6 0.00 0.00 0.00 21 1017.4
20200228150917 19 23 1.6 3.2 0.00 0.00 0.00 22 1017.3
20200228145916 19 0.0 1.6 0.00 0.00 0.00 24 1017.1
20200228144916 18 338 3.2 4.8 0.00 0.00 0.00 25 1017.0
20200228143917 18 315 1.6 3.2 0.00 0.00 0.00 26 1016.9
20200228142916 17 0.0 1.6 0.00 0.00 0.00 28 1017.0
20200228141918 17 158 1.6 3.2 0.00 0.00 0.00 28 1016.8
20200228140916 17 158 3.2 4.8 0.00 0.00 0.00 26 1016.7
20200228135917 16 158 1.6 1.6 0.00 0.00 0.00 31 1016.6
20200228134916 16 158 1.6 1.6 0.00 0.00 0.00 32 1016.5
20200228133915 16 0.0 1.6 0.00 0.00 0.00 34 1016.4
20200228132916 16 0.0 0.0 0.00 0.00 0.00 34 1016.4
20200228131916 16 158 1.6 1.6 0.00 0.00 0.00 34 1016.4
20200228130916 16 158 1.6 3.2 0.00 0.00 0.00 34 1016.5
20200228125916 16 158 3.2 4.8 0.00 0.00 0.00 33 1016.5
20200228124917 16 158 3.2 4.8 0.00 0.00 0.00 38 1016.2
20200228123917 16 225 1.6 3.2 0.00 0.00 0.00 39 1016.3
20200228122916 16 225 3.2 3.2 0.00 0.00 0.00 39 1016.4
20200228121918 16 225 1.6 3.2 0.00 0.00 0.00 38 1016.4
20200228120916 16 225 1.6 1.6 0.00 0.00 0.00 38 1016.4
20200228115916 16 225 3.2 4.8 0.00 0.00 0.00 38 1016.3
20200228114915 16 225 3.2 4.8 0.00 0.00 0.00 38 1016.3
20200228113917 16 225 3.2 4.8 0.00 0.00 0.00 38 1016.4
20200228112917 16 225 3.2 4.8 0.00 0.00 0.00 37 1016.2
20200228111918 16 225 1.6 3.2 0.00 0.00 0.00 35 1016.0
20200228110916 17 225 1.6 3.2 0.00 0.00 0.00 34 1015.9
20200228105917 17 225 6.4 8.0 0.00 0.00 0.00 32 1015.8
20200228104915 17 113 1.6 1.6 0.00 0.00 0.00 29 1015.5
20200228103917 17 113 1.6 3.2 0.00 0.00 0.00 28 1015.6
20200228102916 18 113 1.6 3.2 0.00 0.00 0.00 27 1015.7
20200228101916 18 113 3.2 3.2 0.00 0.00 0.00 27 1015.5
20200228100916 18 113 1.6 4.8 0.00 0.00 0.00 26 1015.4
20200228095916 17 135 3.2 6.4 0.00 0.00 0.00 29 1015.3
20200228094916 17 135 3.2 4.8 0.00 0.00 0.00 30 1015.3
20200228093915 17 135 1.6 1.6 0.00 0.00 0.00 30 1015.6
20200228092915 17 135 3.2 4.8 0.00 0.00 0.00 31 1015.5
20200228090917 17 135 1.6 3.2 0.00 0.00 0.00 35 1015.7
20200228085916 17 135 1.6 1.6 0.00 0.00 0.00 35 1015.9
20200228084916 17 135 1.6 1.6 0.00 0.00 0.00 35 1015.8
20200228083915 17 135 1.6 3.2 0.00 0.00 0.00 35 1016.0
20200228082915 17 135 1.6 4.8 0.00 0.00 0.00 34 1016.0
20200228081915 18 135 3.2 4.8 0.00 0.00 0.00 32 1016.1
20200228080915 18 113 4.8 9.7 0.00 0.00 0.00 30 1016.0
20200228075916 18 113 1.6 3.2 0.00 0.00 0.00 29 1016.3